createdAt,value
2023-04-12T00:01:41.581Z,16.58
2023-04-12T00:04:10.446Z,16.48
2023-04-12T00:06:40.367Z,16.45
2023-04-12T00:09:10.283Z,16.41
2023-04-12T00:11:38.439Z,16.30
2023-04-12T00:14:06.408Z,16.25
2023-04-12T00:16:36.234Z,16.17
2023-04-12T00:19:06.634Z,16.16
2023-04-12T00:21:34.728Z,16.18
2023-04-12T00:24:02.708Z,16.11
2023-04-12T00:26:32.412Z,16.16
2023-04-12T00:29:00.909Z,16.11
2023-04-12T00:31:30.024Z,16.09
2023-04-12T00:33:58.785Z,16.03
2023-04-12T00:36:29.118Z,16.02
2023-04-12T00:38:57.444Z,15.96
2023-04-12T00:41:27.568Z,15.97
2023-04-12T00:43:56.169Z,15.89
2023-04-12T00:46:25.389Z,15.83
2023-04-12T00:48:54.068Z,15.73
2023-04-12T00:51:22.780Z,15.77
2023-04-12T00:53:53.672Z,15.66
2023-04-12T00:56:23.716Z,15.71
2023-04-12T00:58:53.978Z,15.47
2023-04-12T01:01:22.747Z,15.57
2023-04-12T01:03:53.351Z,15.60
2023-04-12T01:06:29.793Z,15.69
2023-04-12T01:09:21.803Z,15.69
2023-04-12T01:12:02.345Z,15.69
2023-04-12T01:14:44.761Z,15.66
2023-04-12T01:17:21.127Z,15.69
2023-04-12T01:20:14.010Z,15.76
2023-04-12T01:23:03.016Z,15.79
2023-04-12T01:26:12.840Z,15.74
2023-04-12T01:28:45.883Z,15.70
2023-04-12T01:31:15.033Z,15.65
2023-04-12T01:33:45.493Z,15.58
2023-04-12T01:36:21.652Z,15.55
2023-04-12T01:38:50.924Z,15.44
2023-04-12T01:41:19.201Z,15.53
2023-04-12T01:43:50.120Z,15.46
2023-04-12T01:46:24.012Z,15.53
2023-04-12T01:49:00.152Z,15.54
2023-04-12T01:51:52.293Z,15.57
2023-04-12T01:54:29.457Z,15.53
2023-04-12T01:57:04.056Z,15.57
2023-04-12T01:59:39.283Z,15.57
2023-04-12T02:02:10.681Z,15.54
2023-04-12T02:04:40.186Z,15.62
2023-04-12T02:07:09.728Z,15.55
2023-04-12T02:09:39.410Z,15.55
2023-04-12T02:12:09.890Z,15.62
2023-04-12T02:14:38.515Z,15.62
2023-04-12T02:17:09.211Z,15.54
2023-04-12T02:19:38.218Z,15.51
2023-04-12T02:22:08.425Z,15.56
2023-04-12T02:24:36.501Z,15.55
2023-04-12T02:27:06.147Z,15.44
2023-04-12T02:29:35.195Z,15.51
2023-04-12T02:32:04.708Z,15.44
2023-04-12T02:34:36.781Z,15.36
2023-04-12T02:37:29.319Z,15.46
2023-04-12T02:39:59.113Z,15.43
2023-04-12T02:42:27.316Z,15.40
2023-04-12T02:44:57.124Z,15.43
2023-04-12T02:47:30.551Z,15.39
2023-04-12T02:50:02.704Z,15.35
2023-04-12T02:52:33.248Z,15.42
2023-04-12T02:55:08.369Z,15.40
2023-04-12T02:57:36.274Z,15.40
2023-04-12T03:00:12.019Z,15.37
2023-04-12T03:02:46.247Z,15.22
2023-04-12T03:05:23.546Z,15.27
2023-04-12T03:07:52.602Z,15.19
2023-04-12T03:10:29.783Z,15.14
2023-04-12T03:13:04.960Z,15.15
2023-04-12T03:16:00.013Z,15.09
2023-04-12T03:18:36.528Z,15.07
2023-04-12T03:21:05.777Z,15.11
2023-04-12T03:23:34.169Z,15.04
2023-04-12T03:26:14.628Z,15.01
2023-04-12T03:29:09.627Z,15.04
2023-04-12T03:31:41.573Z,14.99
2023-04-12T03:34:10.822Z,14.95
2023-04-12T03:36:43.849Z,14.91
2023-04-12T03:39:20.249Z,14.95
2023-04-12T03:41:53.473Z,14.88
2023-04-12T03:44:26.837Z,14.92
2023-04-12T03:46:58.502Z,14.83
2023-04-12T03:49:30.302Z,14.85
2023-04-12T03:51:58.888Z,14.81
2023-04-12T03:54:27.622Z,14.75
2023-04-12T03:57:00.414Z,14.70
2023-04-12T03:59:36.196Z,14.70
2023-04-12T04:02:07.084Z,14.72
2023-04-12T04:04:39.305Z,14.66
2023-04-12T04:07:12.007Z,14.61
2023-04-12T04:09:43.810Z,14.49
2023-04-12T04:12:13.249Z,14.51
2023-04-12T04:14:46.050Z,14.44
2023-04-12T04:17:21.199Z,14.35
2023-04-12T04:19:51.310Z,14.30
2023-04-12T04:22:21.665Z,14.32
2023-04-12T04:24:52.381Z,14.38
2023-04-12T04:27:22.304Z,14.32
2023-04-12T04:29:52.908Z,14.38
2023-04-12T04:32:21.559Z,14.44
2023-04-12T04:34:52.626Z,14.46
2023-04-12T04:37:22.735Z,14.40
2023-04-12T04:39:52.814Z,14.38
2023-04-12T04:42:21.679Z,14.34
2023-04-12T04:45:02.765Z,14.38
2023-04-12T04:47:38.628Z,14.34
2023-04-12T04:50:07.742Z,14.43
2023-04-12T04:52:38.430Z,14.48
2023-04-12T04:55:11.636Z,14.45
2023-04-12T04:57:45.430Z,14.56
2023-04-12T05:00:16.448Z,14.60
2023-04-12T05:02:55.566Z,14.55
2023-04-12T05:05:27.189Z,14.62
2023-04-12T05:08:05.677Z,14.63
2023-04-12T05:10:36.134Z,14.58
2023-04-12T05:13:04.572Z,14.66
2023-04-12T05:15:33.294Z,14.64
2023-04-12T05:18:02.238Z,14.67
2023-04-12T05:20:32.012Z,14.55
2023-04-12T05:23:01.267Z,14.63
2023-04-12T05:25:33.460Z,14.60
2023-04-12T05:28:14.134Z,14.65
2023-04-12T05:30:44.875Z,14.69
2023-04-12T05:33:17.786Z,14.66
2023-04-12T05:35:50.177Z,14.68
2023-04-12T05:38:18.362Z,14.76
2023-04-12T05:40:50.522Z,14.65
2023-04-12T05:43:23.741Z,14.69
2023-04-12T05:45:52.011Z,14.71
2023-04-12T05:48:23.151Z,14.63
2023-04-12T05:50:55.433Z,14.66
2023-04-12T05:53:24.361Z,14.74
2023-04-12T05:55:56.178Z,14.69
2023-04-12T05:58:24.959Z,14.66
2023-04-12T06:00:56.225Z,14.61
2023-04-12T06:03:25.770Z,14.58
2023-04-12T06:05:57.258Z,14.64
2023-04-12T06:08:25.800Z,14.69
2023-04-12T06:10:54.185Z,14.64
2023-04-12T06:13:25.735Z,14.55
2023-04-12T06:15:54.297Z,14.68
2023-04-12T06:18:24.009Z,14.62
2023-04-12T06:20:53.248Z,14.68
2023-04-12T06:23:21.389Z,14.61
2023-04-12T06:25:51.240Z,14.60
2023-04-12T06:28:24.238Z,14.68
2023-04-12T06:30:57.582Z,14.78
2023-04-12T06:33:28.613Z,14.84
2023-04-12T06:35:56.889Z,14.91
2023-04-12T06:38:27.616Z,14.91
2023-04-12T06:40:56.119Z,14.89
2023-04-12T06:43:24.204Z,14.89
2023-04-12T06:45:53.829Z,14.93
2023-04-12T06:48:26.122Z,14.90
2023-04-12T06:50:54.177Z,14.87
2023-04-12T06:53:22.923Z,14.82
2023-04-12T06:55:51.156Z,14.88
2023-04-12T06:58:19.703Z,14.95
2023-04-12T07:00:49.753Z,14.93
2023-04-12T07:03:24.310Z,15.08
2023-04-12T07:05:56.782Z,15.14
2023-04-12T07:08:30.110Z,15.17
2023-04-12T07:11:00.649Z,15.27
2023-04-12T07:13:36.806Z,15.28
2023-04-12T07:16:07.971Z,15.30
2023-04-12T07:18:36.698Z,15.30
2023-04-12T07:21:05.443Z,15.32
2023-04-12T07:23:33.375Z,15.31
2023-04-12T07:26:02.770Z,15.30
2023-04-12T07:28:31.120Z,15.27
2023-04-12T07:31:02.915Z,15.34
2023-04-12T07:33:32.118Z,15.31
2023-04-12T07:36:01.136Z,15.23
2023-04-12T07:38:30.710Z,15.26
2023-04-12T07:41:06.258Z,15.33
2023-04-12T07:43:34.574Z,15.39
2023-04-12T07:46:10.183Z,15.40
2023-04-12T07:48:38.436Z,15.36
2023-04-12T07:51:08.680Z,15.47
2023-04-12T07:53:38.026Z,15.56
2023-04-12T07:56:07.895Z,15.55
2023-04-12T07:58:35.913Z,15.65
2023-04-12T08:01:04.058Z,15.69
2023-04-12T08:03:33.281Z,15.71
2023-04-12T08:06:01.474Z,15.72
2023-04-12T08:08:30.495Z,15.84
2023-04-12T08:10:59.026Z,15.98
2023-04-12T08:13:27.188Z,16.02
2023-04-12T08:15:55.339Z,16.07
2023-04-12T08:18:25.814Z,16.14
2023-04-12T08:20:54.217Z,16.19
2023-04-12T08:23:25.927Z,16.24
2023-04-12T08:26:03.699Z,16.36
2023-04-12T08:28:34.209Z,16.42
2023-04-12T08:31:03.576Z,16.48
2023-04-12T08:33:32.290Z,16.54
2023-04-12T08:36:01.125Z,16.57
2023-04-12T08:41:06.748Z,16.83
2023-04-12T08:43:36.772Z,16.96
2023-04-12T08:46:05.713Z,17.06
2023-04-12T08:48:35.179Z,17.11
2023-04-12T08:51:04.170Z,17.28
2023-04-12T08:53:34.071Z,17.36
2023-04-12T08:56:18.732Z,17.35
2023-04-12T09:32:06.340Z,18.05
2023-04-12T09:34:37.220Z,18.07
2023-04-12T09:37:18.344Z,18.27
2023-04-12T09:39:46.897Z,18.27
2023-04-12T09:42:25.622Z,18.32
2023-04-12T09:45:04.425Z,18.43
2023-04-12T09:47:40.975Z,18.51
2023-04-12T09:50:11.881Z,18.45
2023-04-12T09:52:42.330Z,18.46
2023-04-12T09:55:11.389Z,18.50
2023-04-12T09:57:42.873Z,18.58
2023-04-12T10:00:18.083Z,18.61
2023-04-12T10:02:51.800Z,18.68
2023-04-12T10:05:23.401Z,18.68
2023-04-12T10:07:55.233Z,18.67
2023-04-12T10:10:24.129Z,18.67
2023-04-12T10:12:53.606Z,18.70
2023-04-12T10:15:22.128Z,18.70
2023-04-12T10:17:57.552Z,18.76
2023-04-12T10:20:29.577Z,18.81
2023-04-12T10:22:59.457Z,18.88
2023-04-12T10:25:32.646Z,18.93
2023-04-12T10:28:19.194Z,19.01
2023-04-12T10:30:50.294Z,19.00
2023-04-12T10:33:25.337Z,19.00
2023-04-12T10:36:13.053Z,19.02
2023-04-12T10:39:11.272Z,19.07
2023-04-12T10:42:17.940Z,19.06
2023-04-12T10:44:48.386Z,19.04
2023-04-12T10:47:17.401Z,19.10
2023-04-12T10:50:25.905Z,19.15
2023-04-12T10:53:12.608Z,19.19
2023-04-12T10:55:42.543Z,19.18
2023-04-12T10:58:48.814Z,19.21
2023-04-12T11:01:18.543Z,19.25
2023-04-12T11:04:05.254Z,19.33
2023-04-12T11:06:56.779Z,19.39
2023-04-12T11:09:43.324Z,19.37
2023-04-12T11:12:16.584Z,19.47
2023-04-12T11:14:49.047Z,19.50
2023-04-12T11:17:24.293Z,19.50
2023-04-12T11:19:55.934Z,19.58
2023-04-12T11:22:27.296Z,19.40
2023-04-12T11:25:00.694Z,19.44
2023-04-12T11:27:30.364Z,19.48
2023-04-12T11:30:16.755Z,19.48
2023-04-12T11:33:04.831Z,19.56
2023-04-12T11:35:53.117Z,19.61
2023-04-12T11:38:41.636Z,19.57
2023-04-12T11:41:29.912Z,19.64
2023-04-12T11:43:59.626Z,19.75
2023-04-12T11:46:36.031Z,19.92
2023-04-12T11:49:05.115Z,20.00
2023-04-12T11:51:33.721Z,20.10
2023-04-12T11:54:01.658Z,20.18
2023-04-12T11:56:29.834Z,20.22
2023-04-12T11:58:57.968Z,20.22
2023-04-12T12:01:27.765Z,20.23
2023-04-12T12:03:56.249Z,20.32
2023-04-12T12:06:24.999Z,20.33
2023-04-12T12:08:56.180Z,20.35
2023-04-12T12:11:26.493Z,20.35
2023-04-12T12:14:00.278Z,20.33
2023-04-12T12:16:31.125Z,20.32
2023-04-12T12:19:05.518Z,20.31
2023-04-12T12:21:34.666Z,20.30
2023-04-12T12:24:04.430Z,20.32
2023-04-12T12:26:32.340Z,20.28
2023-04-12T12:29:00.761Z,20.22
2023-04-12T12:31:29.113Z,20.18
2023-04-12T12:33:59.408Z,20.17
2023-04-12T12:36:38.603Z,20.16
2023-04-12T12:39:15.373Z,20.15
2023-04-12T12:41:43.217Z,20.19
2023-04-12T12:44:12.232Z,20.22
2023-04-12T12:46:53.341Z,20.20
2023-04-12T12:49:23.223Z,20.23
2023-04-12T12:51:52.008Z,20.27
2023-04-12T12:54:36.029Z,20.35
2023-04-12T12:57:26.213Z,20.45
2023-04-12T13:00:17.383Z,20.59
2023-04-12T13:03:05.659Z,20.70
2023-04-12T13:05:33.765Z,20.74
2023-04-12T13:08:01.535Z,20.75
2023-04-12T13:10:29.665Z,20.76
2023-04-12T13:12:58.688Z,20.75
2023-04-12T13:15:26.563Z,20.77
2023-04-12T13:17:55.307Z,20.84
2023-04-12T13:20:23.568Z,20.82
2023-04-12T13:22:54.811Z,20.76
2023-04-12T13:25:22.595Z,20.68
2023-04-12T13:27:51.536Z,20.69
2023-04-12T13:30:20.381Z,20.65
2023-04-12T13:32:48.509Z,20.63
2023-04-12T13:35:16.281Z,20.67
2023-04-12T13:37:44.200Z,20.69
2023-04-12T13:40:13.403Z,20.71
2023-04-12T13:42:41.542Z,20.72
2023-04-12T13:45:12.036Z,20.74
2023-04-12T13:47:39.783Z,20.78
2023-04-12T13:50:08.451Z,20.82
2023-04-12T13:52:36.251Z,20.82
2023-04-12T13:55:08.065Z,20.80
2023-04-12T13:57:36.239Z,20.71
2023-04-12T14:00:07.256Z,20.66
2023-04-12T14:02:35.046Z,20.59
2023-04-12T14:05:05.335Z,20.51
2023-04-12T14:07:33.931Z,20.45
2023-04-12T14:10:05.652Z,20.34
2023-04-12T14:12:34.099Z,20.21
2023-04-12T14:15:04.664Z,20.09
2023-04-12T14:17:33.124Z,19.95
2023-04-12T14:20:01.000Z,19.72
2023-04-12T14:22:28.763Z,19.54
2023-04-12T14:24:56.419Z,19.36
2023-04-12T14:27:24.362Z,19.01
2023-04-12T14:29:52.648Z,18.46
2023-04-12T14:32:20.471Z,18.02
2023-04-12T14:34:48.458Z,17.69
2023-04-12T14:37:18.031Z,17.40
2023-04-12T14:39:45.919Z,17.18
2023-04-12T14:42:13.802Z,17.02
2023-04-12T14:44:45.374Z,16.94
2023-04-12T14:47:13.115Z,16.91
2023-04-12T14:49:40.852Z,16.93
2023-04-12T14:52:08.651Z,16.88
2023-04-12T14:54:38.377Z,16.93
2023-04-12T14:57:06.242Z,16.92
2023-04-12T14:59:35.765Z,16.96
2023-04-12T15:02:03.959Z,17.01
2023-04-12T15:04:31.985Z,17.00
2023-04-12T15:07:00.464Z,17.02
2023-04-12T15:09:28.741Z,17.16
2023-04-12T15:12:01.231Z,17.24
2023-04-12T15:14:31.646Z,17.24
2023-04-12T15:16:59.653Z,17.36
2023-04-12T15:19:27.818Z,17.47
2023-04-12T15:21:55.770Z,17.49
2023-04-12T15:24:24.703Z,17.57
2023-04-12T15:26:54.286Z,17.61
2023-04-12T15:29:28.249Z,17.63
2023-04-12T15:31:56.612Z,17.72
2023-04-12T15:34:25.286Z,17.80
2023-04-12T15:36:53.372Z,17.79
2023-04-12T15:39:21.538Z,17.82
2023-04-12T15:41:49.267Z,17.77
2023-04-12T15:44:17.475Z,17.77
2023-04-12T15:46:56.018Z,17.76
2023-04-12T15:49:29.339Z,17.76
2023-04-12T15:51:58.980Z,17.77
2023-04-12T15:54:28.525Z,17.82
2023-04-12T15:56:56.522Z,17.85
2023-04-12T15:59:24.621Z,17.85
2023-04-12T16:01:54.238Z,17.90
2023-04-12T16:04:22.119Z,17.98
2023-04-12T16:06:50.525Z,17.97
2023-04-12T16:09:18.810Z,18.03
2023-04-12T16:11:48.265Z,18.02
2023-04-12T16:14:16.416Z,18.06
2023-04-12T16:16:44.854Z,18.12
2023-04-12T16:19:12.709Z,18.14
2023-04-12T16:21:44.023Z,18.17
2023-04-12T16:24:13.302Z,18.17
2023-04-12T16:26:41.935Z,18.19
2023-04-12T16:29:10.713Z,18.13
2023-04-12T16:31:40.477Z,18.16
2023-04-12T16:34:08.634Z,18.13
2023-04-12T16:36:36.333Z,18.07
2023-04-12T16:39:06.630Z,18.05
2023-04-12T16:41:35.777Z,18.03
2023-04-12T16:44:03.604Z,18.02
2023-04-12T16:46:32.000Z,17.99
2023-04-12T16:49:03.741Z,17.95
2023-04-12T16:51:36.813Z,17.87
2023-04-12T16:54:05.596Z,17.89
2023-04-12T16:56:33.390Z,17.84
2023-04-12T16:59:01.174Z,17.80
2023-04-12T17:01:29.072Z,17.78
2023-04-12T17:03:57.370Z,17.76
2023-04-12T17:06:27.336Z,17.70
2023-04-12T17:08:55.273Z,17.69
2023-04-12T17:11:23.074Z,17.66
2023-04-12T17:13:54.020Z,17.66
2023-04-12T17:16:21.961Z,17.60
2023-04-12T17:19:00.990Z,17.62
2023-04-12T17:21:30.513Z,17.56
2023-04-12T17:24:00.476Z,17.56
2023-04-12T17:26:28.961Z,17.51
2023-04-12T17:28:58.775Z,17.53
2023-04-12T17:31:29.337Z,17.54
2023-04-12T17:33:57.516Z,17.53
2023-04-12T17:36:25.377Z,17.54
2023-04-12T17:38:54.249Z,17.52
2023-04-12T17:41:22.320Z,17.47
2023-04-12T17:43:50.504Z,17.47
2023-04-12T17:46:18.445Z,17.41
2023-04-12T17:48:46.401Z,17.42
2023-04-12T17:51:16.037Z,17.42
2023-04-12T17:53:43.995Z,17.41
2023-04-12T17:56:13.530Z,17.40
2023-04-12T17:58:43.506Z,17.41
2023-04-12T18:01:11.422Z,17.37
2023-04-12T18:03:39.238Z,17.37
2023-04-12T18:06:08.161Z,17.37
2023-04-12T18:08:37.549Z,17.33
2023-04-12T18:11:07.124Z,17.31
2023-04-12T18:13:35.143Z,17.32
2023-04-12T18:16:03.571Z,17.33
2023-04-12T18:18:31.356Z,17.28
2023-04-12T18:21:04.801Z,17.29
2023-04-12T18:23:33.067Z,17.28
2023-04-12T18:26:00.867Z,17.28
2023-04-12T18:28:31.418Z,17.30
2023-04-12T18:31:02.498Z,17.27
2023-04-12T18:33:31.875Z,17.25
2023-04-12T18:35:59.966Z,17.25
2023-04-12T18:38:32.362Z,17.20
2023-04-12T18:41:01.079Z,17.21
2023-04-12T18:43:33.318Z,17.10
2023-04-12T18:46:01.412Z,17.09
2023-04-12T18:48:31.078Z,17.07
2023-04-12T18:51:02.121Z,17.04
2023-04-12T18:53:32.278Z,17.03
2023-04-12T18:56:10.619Z,17.02
2023-04-12T18:58:53.896Z,16.98
2023-04-12T19:01:25.219Z,17.01
2023-04-12T19:03:53.406Z,17.02
2023-04-12T19:06:21.848Z,17.02
2023-04-12T19:08:50.407Z,17.03
2023-04-12T19:11:18.894Z,16.98
2023-04-12T19:13:47.494Z,17.01
2023-04-12T19:16:15.314Z,17.02
2023-04-12T19:18:45.254Z,17.03
2023-04-12T19:21:13.192Z,17.02
2023-04-12T19:23:40.935Z,17.00
2023-04-12T19:26:11.809Z,17.05
2023-04-12T19:28:39.948Z,17.07
2023-04-12T19:31:10.561Z,17.08
2023-04-12T19:33:41.551Z,17.08
2023-04-12T19:36:10.544Z,17.08
2023-04-12T19:38:41.246Z,17.05
2023-04-12T19:41:10.620Z,17.01
2023-04-12T19:43:38.779Z,17.00
2023-04-12T19:46:07.350Z,16.92
2023-04-12T19:48:37.430Z,16.88
2023-04-12T19:51:06.191Z,16.78
2023-04-12T19:53:34.131Z,16.74
2023-04-12T19:56:04.163Z,16.69
2023-04-12T19:58:34.711Z,16.65
2023-04-12T20:01:03.073Z,16.56
2023-04-12T20:03:31.534Z,16.51
2023-04-12T20:06:03.903Z,16.49
2023-04-12T20:08:32.017Z,16.50
2023-04-12T20:11:00.322Z,16.48
2023-04-12T20:13:31.451Z,16.42
2023-04-12T20:16:01.950Z,16.40
2023-04-12T20:18:30.764Z,16.39
2023-04-12T20:21:00.851Z,16.35
2023-04-12T20:23:28.824Z,16.40
2023-04-12T20:25:59.499Z,16.38
2023-04-12T20:28:27.356Z,16.29
2023-04-12T20:30:55.288Z,16.30
2023-04-12T20:33:23.288Z,16.28
2023-04-12T20:35:51.429Z,16.27
2023-04-12T20:38:19.270Z,16.25
2023-04-12T20:40:47.317Z,16.20
2023-04-12T20:43:15.600Z,16.18
2023-04-12T20:45:43.523Z,16.13
2023-04-12T20:48:12.551Z,16.11
2023-04-12T20:50:41.067Z,16.08
2023-04-12T20:53:15.833Z,16.04
2023-04-12T20:55:45.468Z,16.04
2023-04-12T20:58:14.299Z,16.00
2023-04-12T21:00:42.177Z,15.93
2023-04-12T21:03:10.947Z,15.97
2023-04-12T21:05:39.748Z,15.92
2023-04-12T21:08:08.980Z,15.91
2023-04-12T21:10:36.935Z,15.93
2023-04-12T21:13:04.602Z,15.88
2023-04-12T21:15:35.442Z,15.92
2023-04-12T21:18:04.187Z,15.91
2023-04-12T21:20:36.613Z,15.92
2023-04-12T21:23:07.059Z,15.92
2023-04-12T21:25:35.286Z,15.87
2023-04-12T21:28:03.481Z,15.86
2023-04-12T21:30:35.908Z,15.84
2023-04-12T21:33:06.056Z,15.78
2023-04-12T21:35:34.240Z,15.80
2023-04-12T21:38:01.995Z,15.79
2023-04-12T21:40:29.706Z,15.76
2023-04-12T21:42:57.587Z,15.77
2023-04-12T21:45:25.953Z,15.72
2023-04-12T21:47:53.877Z,15.74
2023-04-12T21:50:21.972Z,15.68
2023-04-12T21:52:49.701Z,15.73
2023-04-12T21:55:18.579Z,15.70
2023-04-12T21:57:46.364Z,15.70
2023-04-12T22:00:15.567Z,15.67
2023-04-12T22:02:44.169Z,15.60
2023-04-12T22:05:12.421Z,15.56
2023-04-12T22:07:40.833Z,15.50
2023-04-12T22:10:09.690Z,15.47
2023-04-12T22:12:39.787Z,15.39
2023-04-12T22:15:09.080Z,15.40
2023-04-12T22:17:37.599Z,15.36
2023-04-12T22:20:08.416Z,15.31
2023-04-12T22:22:37.333Z,15.25
2023-04-12T22:25:08.250Z,15.27
2023-04-12T22:27:36.185Z,15.22
2023-04-12T22:30:04.276Z,15.22
2023-04-12T22:32:32.992Z,15.16
2023-04-12T22:35:08.331Z,15.16
2023-04-12T22:37:39.033Z,15.15
2023-04-12T22:40:13.953Z,15.12
2023-04-12T22:42:46.045Z,15.10
2023-04-12T22:45:16.321Z,15.08
2023-04-12T22:47:45.755Z,15.07
2023-04-12T22:50:13.883Z,15.10
2023-04-12T22:52:42.009Z,15.10
2023-04-12T22:55:14.494Z,15.10
2023-04-12T22:57:43.924Z,15.08
2023-04-12T23:00:15.788Z,15.08
2023-04-12T23:02:46.564Z,15.02
2023-04-12T23:05:14.750Z,15.05
2023-04-12T23:07:43.393Z,15.06
2023-04-12T23:10:12.402Z,15.08
2023-04-12T23:12:40.255Z,15.07
2023-04-12T23:15:09.026Z,15.08
2023-04-12T23:17:37.320Z,15.08
2023-04-12T23:20:12.125Z,15.05
2023-04-12T23:23:00.027Z,15.02
2023-04-12T23:25:39.814Z,15.06
2023-04-12T23:28:13.564Z,15.07
2023-04-12T23:30:50.435Z,15.02
2023-04-12T23:33:21.455Z,14.99
2023-04-12T23:35:56.020Z,15.04
2023-04-12T23:38:27.065Z,15.07
2023-04-12T23:40:54.978Z,15.02
2023-04-12T23:43:25.498Z,15.09
2023-04-12T23:45:53.902Z,15.11
2023-04-12T23:48:23.320Z,15.08
2023-04-12T23:50:51.838Z,15.06
2023-04-12T23:53:20.539Z,15.04
2023-04-12T23:55:51.846Z,15.00
2023-04-12T23:58:20.730Z,14.90
